Aviation Digital Data Service (ADDS)

Output produced by METARs form (2317 UTC 05 July 2015)
found at http://aviationweather.gov/adds/metars/
 
KVQQ 051743Z 0518/0618 23004KT P6SM SCT040 SCT120 
     FM051900 22007KT P6SM VCTS SCT040CB BKN060 
     TEMPO 0520/0523 VRB20G30KT 3SM TSRA BKN030CB OVC060 
     FM060200 19004KT P6SM SCT100 BKN200 
     FM061400 25005KT P6SM SCT030 BKN250